createdAt,value
2018-07-13T00:04:15.756Z,16.00
2018-07-13T00:09:18.817Z,16.00
2018-07-13T00:14:24.917Z,16.00
2018-07-13T00:19:28.001Z,15.90
2018-07-13T00:24:31.061Z,15.80
2018-07-13T00:29:34.101Z,15.60
2018-07-13T00:34:37.165Z,15.60
2018-07-13T00:39:40.248Z,15.50
2018-07-13T00:44:43.318Z,15.50
2018-07-13T00:49:46.385Z,15.40
2018-07-13T00:54:49.439Z,15.20
2018-07-13T00:59:52.501Z,15.20
2018-07-13T01:04:55.573Z,15.10
2018-07-13T01:09:58.653Z,15.10
2018-07-13T01:15:01.729Z,15.00
2018-07-13T01:20:04.817Z,15.00
2018-07-13T01:25:07.889Z,15.00
2018-07-13T01:30:10.966Z,14.90
2018-07-13T01:35:14.085Z,14.80
2018-07-13T01:40:17.201Z,14.70
2018-07-13T01:45:20.265Z,14.60
2018-07-13T01:50:23.344Z,14.50
2018-07-13T01:55:26.436Z,14.40
2018-07-13T02:00:29.513Z,14.30
2018-07-13T02:05:32.585Z,14.30
2018-07-13T02:10:35.684Z,14.20
2018-07-13T02:15:38.765Z,14.20
2018-07-13T02:20:41.904Z,14.10
2018-07-13T02:25:44.984Z,14.00
2018-07-13T02:30:48.053Z,13.90
2018-07-13T02:35:51.161Z,13.70
2018-07-13T02:40:54.296Z,13.70
2018-07-13T02:45:57.344Z,13.70
2018-07-13T02:51:00.414Z,13.70
2018-07-13T02:56:03.473Z,13.60
2018-07-13T03:01:06.678Z,13.60
2018-07-13T03:06:09.734Z,13.50
2018-07-13T03:11:12.797Z,13.40
2018-07-13T03:16:15.870Z,13.30
2018-07-13T03:21:18.926Z,13.20
2018-07-13T03:26:22.000Z,13.30
2018-07-13T03:31:25.066Z,13.10
2018-07-13T03:36:28.142Z,13.00
2018-07-13T03:41:31.213Z,13.00
2018-07-13T03:46:34.294Z,13.00
2018-07-13T03:51:37.368Z,12.90
2018-07-13T03:56:40.434Z,12.90
2018-07-13T04:01:43.495Z,12.90
2018-07-13T04:06:46.558Z,12.80
2018-07-13T04:11:49.644Z,12.80
2018-07-13T04:16:52.757Z,12.80
2018-07-13T04:21:55.842Z,12.70
2018-07-13T04:26:58.909Z,12.70
2018-07-13T04:32:01.991Z,12.70
2018-07-13T04:37:05.069Z,12.70
2018-07-13T04:42:08.480Z,12.80
2018-07-13T04:47:11.577Z,12.90
2018-07-13T04:52:14.665Z,13.00
2018-07-13T04:57:17.736Z,13.10
2018-07-13T05:02:20.829Z,13.30
2018-07-13T05:07:24.175Z,13.40
2018-07-13T05:12:27.241Z,13.60
2018-07-13T05:17:30.321Z,13.70
2018-07-13T05:22:33.577Z,13.80
2018-07-13T05:27:36.657Z,14.00
2018-07-13T05:32:40.047Z,14.10
2018-07-13T05:37:43.113Z,14.20
2018-07-13T05:42:46.241Z,14.30
2018-07-13T05:47:49.319Z,14.40
2018-07-13T05:52:52.533Z,14.50
2018-07-13T05:57:55.685Z,14.60
2018-07-13T06:02:58.762Z,14.70
2018-07-13T06:08:01.841Z,14.90
2018-07-13T06:13:05.077Z,14.90
2018-07-13T06:18:08.148Z,15.00
2018-07-13T06:23:11.241Z,15.10
2018-07-13T06:28:14.330Z,15.20
2018-07-13T06:33:17.405Z,15.30
2018-07-13T06:38:20.722Z,15.40
2018-07-13T06:43:23.805Z,15.40
2018-07-13T06:48:26.890Z,15.60
2018-07-13T06:53:29.975Z,15.70
2018-07-13T06:58:44.502Z,15.80
2018-07-13T07:04:51.040Z,15.90
2018-07-13T07:09:55.427Z,16.10
2018-07-13T07:14:58.498Z,16.20
2018-07-13T07:20:01.644Z,16.20
2018-07-13T07:25:04.839Z,16.40
2018-07-13T07:30:07.921Z,16.40
2018-07-13T07:35:11.333Z,16.60
2018-07-13T07:40:14.405Z,16.70
2018-07-13T07:45:17.504Z,16.80
2018-07-13T07:50:20.550Z,17.00
2018-07-13T07:55:23.622Z,17.10
2018-07-13T08:00:26.742Z,17.20
2018-07-13T08:05:29.850Z,17.30
2018-07-13T08:10:32.928Z,17.40
2018-07-13T08:15:36.005Z,17.60
2018-07-13T08:20:44.305Z,17.80
2018-07-13T08:25:48.242Z,17.90
2018-07-13T08:30:54.438Z,17.90
2018-07-13T08:35:57.510Z,18.00
2018-07-13T08:41:00.588Z,18.00
2018-07-13T08:46:03.669Z,18.10
2018-07-13T08:51:06.927Z,18.30
2018-07-13T08:56:10.064Z,18.60
2018-07-13T09:01:13.146Z,18.70
2018-07-13T09:06:16.229Z,18.80
2018-07-13T09:11:19.305Z,19.00
2018-07-13T09:16:22.393Z,19.20
2018-07-13T09:21:25.465Z,19.30
2018-07-13T09:26:28.610Z,19.40
2018-07-13T09:31:31.710Z,19.40
2018-07-13T09:36:34.875Z,19.40
2018-07-13T09:41:38.017Z,19.50
2018-07-13T09:46:41.175Z,19.50
2018-07-13T09:51:44.193Z,19.50
2018-07-13T09:56:47.503Z,19.60
2018-07-13T10:01:50.677Z,19.70
2018-07-13T10:06:54.145Z,19.80
2018-07-13T10:11:57.212Z,19.90
2018-07-13T10:17:02.353Z,19.90
2018-07-13T10:22:05.481Z,19.90
2018-07-13T10:27:08.546Z,20.00
2018-07-13T10:32:11.722Z,20.10
2018-07-13T10:37:14.925Z,20.10
2018-07-13T10:42:17.989Z,20.20
2018-07-13T10:47:21.060Z,20.30
2018-07-13T10:52:24.233Z,20.40
2018-07-13T10:57:27.297Z,20.50
2018-07-13T11:02:30.366Z,20.60
2018-07-13T11:07:33.404Z,20.60
2018-07-13T11:12:36.484Z,20.60
2018-07-13T11:17:39.533Z,20.70
2018-07-13T11:22:42.597Z,20.70
2018-07-13T11:27:46.438Z,20.80
2018-07-13T11:32:49.833Z,20.90
2018-07-13T11:37:52.897Z,20.90
2018-07-13T11:42:55.973Z,21.00
2018-07-13T11:47:59.129Z,21.10
2018-07-13T11:53:02.292Z,21.10
2018-07-13T11:58:05.442Z,21.10
2018-07-13T12:03:09.546Z,21.20
2018-07-13T12:08:13.595Z,21.20
2018-07-13T12:13:16.649Z,21.20
2018-07-13T12:18:19.837Z,21.30
2018-07-13T12:23:22.909Z,21.30
2018-07-13T12:28:25.968Z,21.30
2018-07-13T12:33:29.214Z,21.40
2018-07-13T12:38:32.269Z,21.50
2018-07-13T12:43:35.321Z,21.60
2018-07-13T12:48:38.389Z,21.70
2018-07-13T12:53:41.445Z,21.80
2018-07-13T12:58:44.549Z,21.80
2018-07-13T13:03:47.603Z,21.90
2018-07-13T13:08:50.665Z,22.00
2018-07-13T13:13:53.890Z,22.10
2018-07-13T13:18:56.948Z,22.20
2018-07-13T13:24:00.693Z,22.30
2018-07-13T13:29:03.778Z,22.40
2018-07-13T13:34:07.129Z,22.50
2018-07-13T13:39:10.193Z,22.50
2018-07-13T13:44:13.257Z,22.60
2018-07-13T13:49:16.330Z,22.80
2018-07-13T13:54:19.381Z,22.80
2018-07-13T13:59:22.469Z,23.00
2018-07-13T14:04:25.521Z,23.10
2018-07-13T14:09:28.586Z,23.10
2018-07-13T14:14:31.761Z,23.30
2018-07-13T14:19:34.816Z,23.40
2018-07-13T14:24:37.884Z,23.50
2018-07-13T14:29:40.944Z,23.70
2018-07-13T14:34:43.985Z,23.80
2018-07-13T14:39:47.068Z,24.00
2018-07-13T14:44:50.135Z,24.00
2018-07-13T14:49:53.264Z,24.10
2018-07-13T14:54:56.321Z,24.10
2018-07-13T14:59:59.470Z,24.10
2018-07-13T15:05:03.428Z,24.20
2018-07-13T15:10:06.485Z,24.40
2018-07-13T15:15:09.600Z,24.50
2018-07-13T15:20:12.765Z,24.60
2018-07-13T15:25:15.852Z,24.70
2018-07-13T15:30:18.908Z,24.90
2018-07-13T15:35:21.981Z,25.00
2018-07-13T15:40:25.045Z,25.10
2018-07-13T15:45:28.181Z,25.10
2018-07-13T15:50:31.230Z,25.10
2018-07-13T15:55:39.738Z,25.10
2018-07-13T16:00:42.792Z,25.00
2018-07-13T16:05:45.925Z,24.90
2018-07-13T16:10:49.093Z,24.90
2018-07-13T16:15:52.072Z,24.80
2018-07-13T16:20:55.145Z,24.70
2018-07-13T16:25:58.212Z,24.80
2018-07-13T16:31:01.297Z,24.90
2018-07-13T16:36:04.474Z,24.90
2018-07-13T16:41:07.587Z,25.00
2018-07-13T16:46:10.653Z,25.00
2018-07-13T16:51:13.818Z,25.10
2018-07-13T16:56:16.945Z,25.10
2018-07-13T17:01:19.937Z,25.10
2018-07-13T17:06:23.092Z,25.10
2018-07-13T17:11:26.157Z,25.20
2018-07-13T17:16:29.222Z,25.20
2018-07-13T17:21:32.290Z,25.20
2018-07-13T17:26:35.398Z,25.20
2018-07-13T17:31:38.532Z,25.10
2018-07-13T17:36:41.612Z,24.90
2018-07-13T17:41:44.723Z,24.80
2018-07-13T17:46:47.825Z,24.80
2018-07-13T17:51:50.901Z,24.80
2018-07-13T17:56:58.786Z,24.80
2018-07-13T18:02:01.850Z,24.70
2018-07-13T18:07:05.170Z,24.60
2018-07-13T18:12:09.332Z,24.50
2018-07-13T18:17:12.378Z,24.30
2018-07-13T18:22:15.425Z,24.20
2018-07-13T18:27:18.495Z,24.10
2018-07-13T18:32:21.566Z,23.90
2018-07-13T18:37:24.653Z,23.80
2018-07-13T18:42:27.749Z,23.60
2018-07-13T18:47:30.914Z,23.40
2018-07-13T18:52:33.993Z,23.30
2018-07-13T18:57:37.121Z,23.10
2018-07-13T19:02:40.297Z,23.00
2018-07-13T19:07:43.417Z,22.90
2018-07-13T19:12:46.554Z,22.70
2018-07-13T19:17:49.616Z,22.60
2018-07-13T19:22:52.717Z,22.50
2018-07-13T19:27:55.840Z,22.30
2018-07-13T19:32:58.981Z,22.20
2018-07-13T19:38:02.040Z,22.00
2018-07-13T19:43:05.951Z,21.80
2018-07-13T19:48:09.035Z,21.70
2018-07-13T19:53:12.113Z,21.50
2018-07-13T19:58:16.208Z,21.40
2018-07-13T20:03:19.290Z,21.20
2018-07-13T20:08:22.377Z,21.00
2018-07-13T20:13:25.477Z,20.80
2018-07-13T20:18:28.585Z,20.60
2018-07-13T20:23:31.648Z,20.40
2018-07-13T20:28:34.801Z,20.30
2018-07-13T20:33:37.861Z,20.20
2018-07-13T20:38:40.905Z,20.00
2018-07-13T20:43:43.969Z,19.80
2018-07-13T20:48:47.024Z,19.60
2018-07-13T20:53:50.085Z,19.40
2018-07-13T20:58:53.163Z,19.20
2018-07-13T21:03:56.237Z,19.00
2018-07-13T21:08:59.410Z,18.80
2018-07-13T21:14:02.505Z,18.60
2018-07-13T21:19:05.666Z,18.60
2018-07-13T21:24:08.706Z,18.40
2018-07-13T21:29:11.894Z,18.40
2018-07-13T21:34:14.924Z,18.30
2018-07-13T21:39:17.969Z,18.20
2018-07-13T21:44:21.016Z,18.10
2018-07-13T21:49:24.076Z,18.10
2018-07-13T21:54:27.141Z,18.00
2018-07-13T21:59:30.205Z,17.90
2018-07-13T22:04:33.266Z,17.90
2018-07-13T22:09:36.433Z,17.80
2018-07-13T22:14:39.465Z,17.80
2018-07-13T22:19:42.529Z,17.70
2018-07-13T22:24:45.585Z,17.70
2018-07-13T22:29:48.645Z,17.80
2018-07-13T22:34:51.713Z,17.70
2018-07-13T22:39:54.769Z,17.60
2018-07-13T22:44:57.829Z,17.50
2018-07-13T22:50:00.893Z,17.50
2018-07-13T22:55:03.985Z,17.40
2018-07-13T23:00:07.337Z,17.50
2018-07-13T23:05:10.401Z,17.50
2018-07-13T23:10:13.481Z,17.40
2018-07-13T23:15:16.553Z,17.30
2018-07-13T23:20:19.626Z,17.20
2018-07-13T23:25:22.700Z,17.10
2018-07-13T23:30:25.773Z,17.00
2018-07-13T23:35:28.846Z,17.00
2018-07-13T23:40:31.920Z,16.90
2018-07-13T23:45:34.981Z,16.90
2018-07-13T23:50:38.096Z,16.80
2018-07-13T23:55:41.161Z,16.70
